ZBSJ Airport Information

Runway Information
Runway 15 Length 11155 ft width 148 ft
Elevation 233 ft Threshold 0 ft Heading 147
Runway 33 Length 11155 ft Width 148 ft
Elevation 220 ft Threshold 0 ft Heading 327
Airport Frequencies
Type TWR Name SHIJIAZHUA Frequency 118.35 MHZ
Airport Navaids
Type NDB Name Wuji Frequency 272 KHZ
Type NDB Name Xingtang Frequency 235 KHZ
Type VOR-DME Name Zhengding Frequency 117700 KHZ
Airport Weather Information & NOTAM
ADDS - METARS form results

(2149 UTC 19 September 2020)
Data provider http://aviationweather.gov/metar/data/
 
METAR text: ZBSJ 192100Z 34002MPS 8000 NSC 16/14 Q1017 NOSIG
Conditions at: ZBSJ (ZHENGDING , CN) observed 2100 UTC 19 September 2020
Temperature: 16.0°C (61°F)
Dewpoint: 14.0°C (57°F) [RH = 88%]
Pressure (altimeter): 30.03 inches Hg (1017.0 mb)
Winds: from the NNW (340 degrees) at 5 MPH (4 knots; 2.1 m/s)
Visibility: 5 miles ( 8 km)
Ceiling: at least 12,000 feet AGL
Clouds: sky clear below 12,000 feet AGL
Weather: no significant weather observed at this time

Forecast for: ZBSJ (ZHENGDING , CN)
Text: TAF ZBSJ 191521Z 1918/2018 06004MPS 5000 BR NSC TX27/2007Z TN13/1921Z
Forecast period: 1800 UTC 19 September 2020 to 1800 UTC 20 September 2020
Forecast type: FROM: standard forecast or significant change
Winds: from the ENE (60 degrees) at 9 MPH (8 knots; 4.1 m/s)
Visibility: 3 miles (5 km)
Ceiling: unknown
Clouds: missing
Weather: BR  (mist)